Time;durP1;ratioP1;P1;durP2;ratioP2;P2;SDS_P1;SDS_P2;PMS_P1;PMS_P2;Temp;Humidity;BMP_temperature;BMP_pressure;BME280_temperature;BME280_humidity;BME280_pressure;Samples;Min_cycle;Max_cycle;Signal;HPM_P1;HPM_P2
2023/01/05 00:01:49;;;;;;;21.25;4.95;;;;;;;12.15;73.62;101451.91;3564149;40;20373;-64
2023/01/05 00:04:15;;;;;;;22.08;5.32;;;;;;;11.60;73.16;101364.34;3563697;40;20048;-63
2023/01/05 00:06:41;;;;;;;20.20;4.50;;;;;;;12.13;73.07;101448.44;3564311;40;20056;-64
2023/01/05 00:09:12;;;;;;;24.30;4.65;;;;;;;12.07;73.04;101447.81;3564317;40;20119;-64
2023/01/05 00:22:53;;;;;;;21.25;4.57;;;;;;;11.37;73.48;101361.13;3568338;40;20051;-63
2023/01/05 00:25:32;;;;;;;25.15;4.93;;;;;;;11.92;73.10;101453.22;3569714;40;20316;-63
2023/01/05 00:27:59;;;;;;;21.08;4.50;;;;;;;11.91;73.28;101457.75;3568492;40;20079;-63
2023/01/05 00:30:35;;;;;;;20.33;4.28;;;;;;;11.88;73.19;101449.84;3562157;40;20088;-63
2023/01/05 00:33:00;;;;;;;27.00;4.85;;;;;;;11.83;73.37;101460.00;3568947;40;20053;-63
2023/01/05 00:35:28;;;;;;;21.33;3.95;;;;;;;11.77;73.78;101460.34;3568765;40;21295;-66
2023/01/05 00:37:54;;;;;;;24.08;5.32;;;;;;;11.76;73.57;101459.44;3566596;40;20065;-64
2023/01/05 00:40:21;;;;;;;27.45;5.47;;;;;;;11.36;73.54;101390.84;3565399;40;20744;-64
2023/01/05 00:42:47;;;;;;;25.75;4.93;;;;;;;11.75;73.58;101455.03;3565356;40;20371;-64
2023/01/05 00:45:16;;;;;;;23.23;4.88;;;;;;;11.74;73.61;101449.75;3565005;40;20130;-64
2023/01/05 00:47:43;;;;;;;26.08;5.25;;;;;;;11.66;73.90;101463.63;3564633;40;20132;-63
2023/01/05 00:50:15;;;;;;;25.73;5.47;;;;;;;11.62;73.80;101462.06;3566105;40;20061;-64
2023/01/05 00:52:42;;;;;;;24.52;5.43;;;;;;;11.62;74.07;101470.13;3566996;40;20060;-64
2023/01/05 00:55:08;;;;;;;23.50;5.10;;;;;;;11.61;73.92;101465.72;3566690;40;20067;-64
2023/01/05 00:57:34;;;;;;;25.08;4.82;;;;;;;11.14;74.01;101383.09;3569637;40;20469;-63
2023/01/05 01:00:03;;;;;;;26.80;4.68;;;;;;;11.11;74.14;101385.94;3565118;40;20061;-64
2023/01/05 01:02:29;;;;;;;24.75;4.75;;;;;;;11.51;74.36;101459.09;3564242;40;20056;-65
2023/01/05 01:04:55;;;;;;;21.33;5.47;;;;;;;10.74;74.46;101347.59;3567992;40;20060;-65
2023/01/05 01:07:21;;;;;;;28.88;5.03;;;;;;;11.42;74.83;101464.97;3567781;40;20412;-63
2023/01/05 01:09:46;;;;;;;30.33;5.30;;;;;;;11.35;74.46;101453.69;3567899;40;20056;-63
2023/01/05 01:12:12;;;;;;;24.65;5.32;;;;;;;11.28;74.92;101460.34;3568563;40;20052;-63
2023/01/05 01:14:38;;;;;;;32.38;5.60;;;;;;;11.25;74.92;101469.47;3569060;40;20295;-63
2023/01/05 01:17:04;;;;;;;25.88;4.78;;;;;;;11.23;75.32;101474.09;3570418;40;20045;-63
2023/01/05 01:19:29;;;;;;;30.55;5.20;;;;;;;10.50;75.58;101346.22;3569069;40;20073;-64
2023/01/05 01:21:55;;;;;;;24.50;5.15;;;;;;;11.11;75.47;101461.28;3569979;40;20060;-64
2023/01/05 01:24:26;;;;;;;28.80;4.88;;;;;;;11.11;76.28;101480.13;3566771;40;20392;-64
2023/01/05 01:26:53;;;;;;;26.52;5.35;;;;;;;11.07;76.16;101481.25;3565499;40;20470;-64
2023/01/05 01:29:21;;;;;;;26.80;5.35;;;;;;;10.33;76.63;101371.31;3566560;40;20301;-64
2023/01/05 01:31:50;;;;;;;28.55;5.32;;;;;;;11.05;76.42;101488.53;3570167;40;20097;-64
2023/01/05 01:34:16;;;;;;;26.83;5.13;;;;;;;11.01;76.94;101489.66;3570991;40;20285;-64
2023/01/05 01:36:43;;;;;;;27.33;5.00;;;;;;;11.03;76.75;101490.41;3569644;40;20061;-64
2023/01/05 01:39:10;;;;;;;28.42;4.90;;;;;;;11.01;77.21;101495.03;3559104;40;20057;-64
2023/01/05 01:41:36;;;;;;;27.95;4.78;;;;;;;10.45;76.80;101402.91;3571122;40;20063;-64
2023/01/05 01:44:47;;;;;;;24.17;4.78;;;;;;;11.01;76.62;101486.94;3571123;40;20060;-64
2023/01/05 01:47:58;;;;;;;26.10;5.45;;;;;;;11.05;76.79;101499.28;3570395;40;20049;-64
2023/01/05 01:50:33;;;;;;;26.95;4.85;;;;;;;11.04;76.56;101494.88;3520295;40;20069;-64
2023/01/05 01:53:10;;;;;;;28.23;5.75;;;;;;;11.09;76.82;101499.03;3560995;40;20064;-64
2023/01/05 01:55:39;;;;;;;22.88;5.05;;;;;;;10.62;76.91;101416.34;3572888;40;20063;-64
2023/01/05 01:58:12;;;;;;;26.10;5.30;;;;;;;11.11;76.69;101499.81;3569500;40;20056;-64
2023/01/05 02:00:42;;;;;;;24.88;5.35;;;;;;;11.12;76.98;101501.56;3569787;40;20049;-64
2023/01/05 02:03:09;;;;;;;27.85;5.15;;;;;;;11.16;76.93;101504.94;3565327;40;20059;-64
2023/01/05 02:05:36;;;;;;;29.95;5.55;;;;;;;11.18;76.45;101511.13;3567151;40;20065;-63
2023/01/05 02:08:09;;;;;;;26.52;5.85;;;;;;;11.18;76.37;101497.66;3569389;40;20045;-64
2023/01/05 02:11:12;;;;;;;23.08;4.93;;;;;;;11.23;76.62;101501.00;3568947;40;20072;-64
2023/01/05 02:13:52;;;;;;;31.70;6.25;;;;;;;11.26;76.42;101498.13;3566619;40;20069;-64
2023/01/05 02:16:23;;;;;;;25.05;4.75;;;;;;;11.25;76.64;101514.34;3563326;40;20057;-64
2023/01/05 02:19:24;;;;;;;28.02;5.35;;;;;;;11.24;76.81;101510.78;3567945;40;20041;-64
2023/01/05 02:22:19;;;;;;;21.98;4.60;;;;;;;11.25;77.17;101515.22;3567606;40;20070;-64
2023/01/05 02:25:05;;;;;;;22.77;5.00;;;;;;;11.28;76.48;101514.19;3564010;40;20053;-64
2023/01/05 02:27:59;;;;;;;25.08;5.20;;;;;;;11.31;76.54;101517.59;3568772;40;20204;-64
2023/01/05 02:30:59;;;;;;;24.50;5.63;;;;;;;11.33;76.93;101523.75;3564016;40;20410;-64
2023/01/05 02:33:55;;;;;;;28.65;5.50;;;;;;;11.30;76.73;101505.09;3569934;40;20091;-64
2023/01/05 02:36:46;;;;;;;26.77;4.78;;;;;;;11.37;76.87;101514.56;3568660;40;20049;-64
2023/01/05 02:39:28;;;;;;;26.50;5.03;;;;;;;11.38;76.43;101524.41;3570592;40;20307;-64
2023/01/05 02:42:19;;;;;;;31.75;6.32;;;;;;;11.44;76.71;101522.31;3567926;40;20061;-64
2023/01/05 02:44:45;;;;;;;19.27;5.15;;;;;;;11.46;76.25;101520.41;3568867;40;20433;-64
2023/01/05 02:47:26;;;;;;;28.85;5.93;;;;;;;11.48;76.48;101530.16;3569220;40;20055;-64
2023/01/05 02:50:03;;;;;;;24.85;5.18;;;;;;;11.46;76.21;101523.09;3568771;40;20048;-64
2023/01/05 02:52:50;;;;;;;24.02;5.07;;;;;;;11.40;76.04;101508.16;3570058;40;20053;-64
2023/01/05 02:55:26;;;;;;;28.25;5.22;;;;;;;11.53;76.01;101533.44;3569890;40;20533;-63
2023/01/05 02:58:08;;;;;;;26.50;5.35;;;;;;;11.54;76.06;101524.41;3565725;40;20053;-64
2023/01/05 03:01:03;;;;;;;24.75;5.18;;;;;;;11.05;75.46;101435.56;3566151;40;20134;-64
2023/01/05 03:03:58;;;;;;;20.10;4.57;;;;;;;11.60;75.18;101529.44;3563077;40;20052;-64
2023/01/05 03:06:48;;;;;;;21.27;4.32;;;;;;;11.59;75.37;101526.84;3567537;40;20053;-64
2023/01/05 03:09:18;;;;;;;22.55;5.03;;;;;;;10.90;75.28;101404.97;3569856;40;20056;-64
2023/01/05 03:15:31;;;;;;;26.55;5.47;;;;;;;11.60;75.52;101528.59;3566163;40;20129;-63
2023/01/05 03:18:08;;;;;;;22.10;4.68;;;;;;;11.54;75.96;101518.16;3568672;40;20056;-64
2023/01/05 03:20:40;;;;;;;21.48;4.53;;;;;;;11.60;75.90;101539.38;3565791;40;20057;-64
2023/01/05 03:37:43;;;;;;;24.27;5.22;;;;;;;11.71;75.05;101542.34;3569644;40;20055;-64
2023/01/05 03:40:29;;;;;;;25.50;4.68;;;;;;;11.71;74.77;101542.34;3570348;40;20422;-64
2023/01/05 03:42:56;;;;;;;23.98;4.65;;;;;;;11.37;74.58;101468.81;3567687;40;20392;-64
2023/01/05 03:45:31;;;;;;;22.95;4.72;;;;;;;11.08;74.53;101424.66;3567045;40;20068;-64
2023/01/05 03:47:56;;;;;;;22.25;4.60;;;;;;;11.14;74.39;101435.06;3569076;40;20087;-64
2023/01/05 03:50:22;;;;;;;21.40;4.45;;;;;;;11.75;74.32;101549.28;3562550;40;20479;-64
2023/01/05 03:52:48;;;;;;;23.02;4.85;;;;;;;11.13;74.41;101444.13;3569788;40;20111;-65
2023/01/05 03:55:13;;;;;;;22.38;4.57;;;;;;;11.77;74.10;101543.84;3567511;40;20087;-63
2023/01/05 03:57:39;;;;;;;23.63;4.97;;;;;;;11.80;74.05;101546.38;3568281;40;20057;-63
2023/01/05 04:00:05;;;;;;;21.65;4.32;;;;;;;11.75;73.90;101549.28;3564489;40;20057;-65
2023/01/05 04:02:31;;;;;;;24.35;5.00;;;;;;;11.81;74.61;101559.72;3556242;40;20501;-64
2023/01/05 04:04:57;;;;;;;21.88;4.75;;;;;;;11.83;74.03;101552.44;3566892;40;20059;-64
2023/01/05 04:07:22;;;;;;;19.60;4.60;;;;;;;11.37;74.10;101470.63;3567354;40;20076;-64
2023/01/05 04:09:48;;;;;;;28.23;4.65;;;;;;;11.86;74.42;101556.81;3569547;40;20079;-64
2023/01/05 04:12:13;;;;;;;20.63;4.78;;;;;;;11.88;74.11;101548.66;3567170;40;20060;-64
2023/01/05 04:14:39;;;;;;;26.73;4.82;;;;;;;11.89;74.06;101555.78;3566400;40;20064;-63
2023/01/05 04:17:05;;;;;;;24.88;5.05;;;;;;;11.88;74.56;101554.03;3565819;40;20048;-64
2023/01/05 04:19:30;;;;;;;25.45;5.32;;;;;;;11.87;74.90;101550.47;3564940;40;20061;-64
2023/01/05 04:21:56;;;;;;;22.70;4.90;;;;;;;11.84;75.30;101556.91;3567023;40;20056;-64
2023/01/05 04:24:21;;;;;;;21.80;4.47;;;;;;;11.84;75.26;101569.47;3566433;40;20057;-64
2023/01/05 04:26:47;;;;;;;26.48;5.32;;;;;;;11.81;74.87;101559.72;3565826;40;20056;-63
2023/01/05 04:29:13;;;;;;;29.85;5.43;;;;;;;11.84;74.83;101556.91;3565795;40;20061;-64
2023/01/05 04:31:38;;;;;;;26.50;4.53;;;;;;;11.84;74.77;101569.47;3566283;40;20060;-63
2023/01/05 04:34:04;;;;;;;22.98;5.28;;;;;;;11.86;74.68;101556.81;3567631;40;20307;-64
2023/01/05 04:36:30;;;;;;;28.38;7.45;;;;;;;11.90;74.66;101552.16;3568003;40;20072;-64
2023/01/05 04:38:55;;;;;;;29.15;5.32;;;;;;;11.87;74.70;101557.69;3570642;40;20053;-64
2023/01/05 04:41:21;;;;;;;22.33;4.90;;;;;;;11.87;74.60;101558.56;3570488;40;20074;-64
2023/01/05 04:43:46;;;;;;;27.08;5.03;;;;;;;11.89;74.64;101567.41;3570558;40;20059;-64
2023/01/05 04:46:12;;;;;;;24.52;4.93;;;;;;;11.88;74.61;101559.44;3567833;40;20059;-64
2023/01/05 04:48:37;;;;;;;28.75;5.43;;;;;;;11.87;74.62;101557.69;3566733;40;20060;-64
2023/01/05 04:51:03;;;;;;;25.30;4.53;;;;;;;11.89;74.71;101556.63;3566484;40;20292;-64
2023/01/05 04:53:29;;;;;;;23.55;4.88;;;;;;;11.88;74.92;101559.44;3570004;40;20131;-64
2023/01/05 04:55:54;;;;;;;29.80;5.70;;;;;;;11.90;75.02;101553.00;3570657;40;20052;-64
2023/01/05 04:58:20;;;;;;;25.58;5.43;;;;;;;11.90;74.81;101558.41;3567463;40;20732;-64
2023/01/05 05:00:49;;;;;;;29.95;4.70;;;;;;;11.90;74.55;101552.16;3568076;40;20650;-64
2023/01/05 05:03:15;;;;;;;25.17;5.13;;;;;;;11.91;74.47;101565.50;3566352;40;20403;-64
2023/01/05 05:05:40;;;;;;;25.08;4.68;;;;;;;11.92;74.95;101563.69;3564705;40;20148;-64
2023/01/05 05:08:06;;;;;;;23.02;5.18;;;;;;;11.33;74.34;101475.31;3569637;40;20075;-64
2023/01/05 05:10:32;;;;;;;25.05;5.53;;;;;;;11.90;74.78;101573.69;3569409;40;20052;-64
2023/01/05 05:12:58;;;;;;;27.17;4.55;;;;;;;11.92;74.56;101566.38;3570488;40;20511;-64
2023/01/05 05:15:23;;;;;;;23.45;4.43;;;;;;;11.95;74.35;101571.59;3567489;40;20401;-63
2023/01/05 05:17:49;;;;;;;20.42;4.45;;;;;;;11.94;74.19;101580.66;3565544;40;20052;-64
2023/01/05 05:20:15;;;;;;;28.73;4.95;;;;;;;11.96;74.22;101584.13;3565173;40;20343;-64
2023/01/05 05:22:40;;;;;;;22.02;4.57;;;;;;;11.97;73.72;101577.78;3566661;40;20392;-64
2023/01/05 05:25:06;;;;;;;22.17;5.15;;;;;;;11.98;73.90;101590.28;3569578;40;20359;-64
2023/01/05 05:27:32;;;;;;;28.67;5.72;;;;;;;11.96;74.21;101586.84;3569543;40;20280;-64
2023/01/05 05:29:58;;;;;;;19.42;4.78;;;;;;;12.01;74.04;101590.97;3569603;40;20049;-64
2023/01/05 05:32:23;;;;;;;25.33;4.93;;;;;;;11.98;74.07;101587.59;3566026;40;20064;-64
2023/01/05 05:34:49;;;;;;;28.00;5.68;;;;;;;12.00;74.25;101593.78;3567923;40;20091;-64
2023/01/05 05:37:14;;;;;;;26.02;5.30;;;;;;;11.97;74.36;101596.66;3564861;40;20057;-64
2023/01/05 05:39:40;;;;;;;28.38;5.40;;;;;;;11.98;74.44;101603.75;3567454;40;20391;-64
2023/01/05 05:42:05;;;;;;;28.60;5.70;;;;;;;11.96;74.50;101606.56;3569297;40;20056;-64
2023/01/05 05:44:31;;;;;;;27.45;5.63;;;;;;;11.90;74.38;101589.88;3568339;40;20301;-64
2023/01/05 05:46:57;;;;;;;25.55;5.20;;;;;;;11.97;74.89;101602.03;3568003;40;20063;-64
2023/01/05 05:49:22;;;;;;;27.45;5.43;;;;;;;11.23;74.63;101481.28;3569000;40;20306;-64
2023/01/05 05:51:48;;;;;;;28.58;5.55;;;;;;;11.97;74.49;101608.28;3569545;40;20060;-65
2023/01/05 05:54:13;;;;;;;29.02;5.30;;;;;;;11.96;74.41;101605.69;3564769;40;20096;-64
2023/01/05 05:56:39;;;;;;;33.55;5.63;;;;;;;11.92;75.00;101610.34;3567237;40;20057;-64
2023/01/05 05:59:05;;;;;;;23.58;5.43;;;;;;;11.95;74.47;101620.09;3567369;40;20091;-64
2023/01/05 06:01:30;;;;;;;30.02;5.90;;;;;;;11.93;74.60;101622.03;3567522;40;20052;-63
2023/01/05 06:03:56;;;;;;;22.55;5.05;;;;;;;11.91;74.92;101616.69;3561348;40;20053;-64
2023/01/05 06:06:21;;;;;;;28.20;5.20;;;;;;;11.89;74.62;101634.75;3568170;40;20157;-64
2023/01/05 06:08:47;;;;;;;28.85;5.65;;;;;;;11.90;74.70;101639.22;3567943;40;20451;-64
2023/01/05 06:11:13;;;;;;;26.27;4.95;;;;;;;11.89;74.81;101633.91;3565022;40;20296;-64
2023/01/05 06:13:38;;;;;;;27.73;5.38;;;;;;;11.90;74.82;101638.34;3563802;40;20068;-64
2023/01/05 06:16:04;;;;;;;27.80;5.50;;;;;;;11.22;74.94;101512.69;3566478;40;20409;-64
2023/01/05 06:18:30;;;;;;;26.60;5.13;;;;;;;11.92;74.71;101631.03;3568155;40;20063;-64
2023/01/05 06:20:55;;;;;;;28.98;5.15;;;;;;;11.33;74.68;101545.31;3568853;40;20307;-64
2023/01/05 06:23:21;;;;;;;29.48;5.78;;;;;;;11.90;75.03;101638.34;3568660;40;20064;-63
2023/01/05 06:25:47;;;;;;;25.92;5.13;;;;;;;11.43;74.76;101582.50;3565111;40;20084;-64
2023/01/05 06:28:12;;;;;;;28.98;5.00;;;;;;;11.87;75.01;101660.06;3564105;40;20291;-63
2023/01/05 06:30:38;;;;;;;30.48;5.18;;;;;;;11.91;75.10;101661.63;3567071;40;20293;-63
2023/01/05 06:33:03;;;;;;;26.92;5.25;;;;;;;11.92;75.12;101657.97;3564181;40;20061;-63
2023/01/05 06:35:29;;;;;;;29.33;5.13;;;;;;;11.92;75.14;101650.75;3566134;40;20289;-64
2023/01/05 06:37:55;;;;;;;26.67;5.07;;;;;;;11.90;75.22;101654.53;3566115;40;20056;-64
2023/01/05 06:40:20;;;;;;;31.00;5.72;;;;;;;11.88;75.00;101659.13;3568830;40;20075;-65
2023/01/05 06:42:46;;;;;;;32.45;6.10;;;;;;;11.25;74.93;101550.22;3568567;40;20056;-64
2023/01/05 06:45:15;;;;;;;28.95;5.28;;;;;;;11.88;75.31;101667.19;3568558;40;20045;-64
2023/01/05 06:47:42;;;;;;;32.75;5.97;;;;;;;11.88;75.23;101678.84;3567948;40;20056;-64
2023/01/05 06:50:09;;;;;;;35.08;6.47;;;;;;;11.88;75.35;101683.34;3565664;40;20057;-64
2023/01/05 06:52:38;;;;;;;35.97;6.30;;;;;;;11.88;75.61;101684.22;3564590;40;20372;-64
2023/01/05 06:55:07;;;;;;;33.08;6.15;;;;;;;11.84;75.42;101683.53;3565981;40;20403;-64
2023/01/05 06:57:33;;;;;;;31.02;6.45;;;;;;;11.15;75.78;101559.72;3566195;40;20064;-64
2023/01/05 06:59:58;;;;;;;28.58;5.30;;;;;;;11.85;75.79;101696.03;3570764;40;20059;-64
2023/01/05 07:02:24;;;;;;;30.33;5.80;;;;;;;11.85;76.18;101695.16;3555189;40;20108;-65
2023/01/05 07:04:50;;;;;;;34.00;6.45;;;;;;;11.82;75.82;101685.38;3564191;40;20419;-65
2023/01/05 07:07:15;;;;;;;32.70;5.85;;;;;;;11.84;76.01;101688.91;3564128;40;20063;-65
2023/01/05 07:09:41;;;;;;;37.63;7.28;;;;;;;11.84;76.07;101694.28;3567155;40;20059;-64
2023/01/05 07:12:07;;;;;;;32.05;5.60;;;;;;;11.83;75.87;101692.53;3566780;40;20060;-64
2023/01/05 07:14:33;;;;;;;28.42;5.60;;;;;;;11.80;75.90;101695.38;3566099;40;20151;-65
2023/01/05 07:16:59;;;;;;;27.17;5.45;;;;;;;11.82;75.96;101692.59;3566509;40;20453;-64
2023/01/05 07:19:25;;;;;;;31.13;6.82;;;;;;;11.82;75.71;101688.06;3565867;40;20101;-64
2023/01/05 07:21:50;;;;;;;35.60;5.90;;;;;;;11.74;75.72;101687.63;3565048;40;20053;-64
2023/01/05 07:24:16;;;;;;;31.05;6.43;;;;;;;11.80;75.63;101690.00;3566762;40;20045;-65
2023/01/05 07:26:41;;;;;;;35.28;7.07;;;;;;;11.77;76.25;101692.84;3566580;40;20049;-65
2023/01/05 07:29:07;;;;;;;32.33;6.13;;;;;;;11.78;76.25;101705.38;3567709;40;20428;-64
2023/01/05 07:31:33;;;;;;;26.90;5.68;;;;;;;11.78;76.04;101715.28;3569062;40;20527;-65
2023/01/05 07:33:59;;;;;;;30.65;6.68;;;;;;;11.76;76.27;101707.25;3566282;40;20057;-65
2023/01/05 07:36:24;;;;;;;32.15;5.45;;;;;;;11.75;75.92;101719.00;3566139;40;20053;-65
2023/01/05 07:38:52;;;;;;;34.92;6.35;;;;;;;11.76;76.39;101718.03;3566303;40;20061;-64
2023/01/05 07:41:18;;;;;;;31.35;6.68;;;;;;;11.75;76.38;101721.69;3565424;40;20067;-65
2023/01/05 07:43:47;;;;;;;30.35;5.57;;;;;;;11.43;76.11;101671.34;3566105;40;20053;-65
2023/01/05 07:46:14;;;;;;;32.40;5.47;;;;;;;11.76;76.26;101728.81;3564027;40;20057;-65
2023/01/05 07:48:40;;;;;;;32.97;6.15;;;;;;;11.77;76.41;101733.25;3566305;40;20064;-65
2023/01/05 07:51:06;;;;;;;29.25;5.82;;;;;;;11.76;76.29;101723.41;3566427;40;20108;-64
2023/01/05 07:53:36;;;;;;;33.53;6.43;;;;;;;11.73;75.83;101728.97;3566968;40;20065;-65
2023/01/05 07:56:04;;;;;;;31.10;5.80;;;;;;;11.74;76.22;101730.72;3566216;40;20048;-65
2023/01/05 07:58:31;;;;;;;39.47;7.43;;;;;;;11.73;75.76;101728.97;3563727;40;20064;-64
2023/01/05 08:00:56;;;;;;;34.05;6.63;;;;;;;11.71;76.01;101730.88;3565759;40;20160;-65
2023/01/05 08:03:22;;;;;;;29.67;6.18;;;;;;;11.73;76.05;101734.34;3565696;40;20538;-65
2023/01/05 08:05:48;;;;;;;30.35;6.28;;;;;;;11.71;75.98;101738.97;3565695;40;20089;-65
2023/01/05 08:08:15;;;;;;;28.52;5.75;;;;;;;11.71;76.29;101740.78;3566376;40;20070;-65
2023/01/05 08:10:42;;;;;;;34.33;6.03;;;;;;;11.67;76.43;101745.47;3566845;40;20357;-65
2023/01/05 08:15:58;;;;;;;30.25;6.38;;;;;;;11.74;75.79;101746.88;3568687;40;20055;-65
2023/01/05 08:18:24;;;;;;;29.60;5.60;;;;;;;11.72;75.88;101747.91;3566430;40;20059;-65
2023/01/05 08:20:57;;;;;;;31.33;5.85;;;;;;;11.74;75.48;101749.59;3558585;40;20053;-65
2023/01/05 08:23:25;;;;;;;30.98;5.57;;;;;;;11.77;76.01;101754.81;3569014;40;20396;-65
2023/01/05 08:25:51;;;;;;;33.72;6.90;;;;;;;11.77;75.72;101754.81;3564007;40;20068;-65
2023/01/05 08:28:17;;;;;;;30.40;5.53;;;;;;;11.77;75.47;101762.91;3564918;40;20069;-65
2023/01/05 08:30:42;;;;;;;32.60;5.68;;;;;;;11.81;75.28;101758.22;3563641;40;20057;-65
2023/01/05 08:33:09;;;;;;;23.08;5.70;;;;;;;11.83;75.76;101767.97;3566930;40;20048;-65
2023/01/05 08:35:43;;;;;;;29.65;5.75;;;;;;;11.08;75.48;101641.72;3567494;40;20168;-65
2023/01/05 08:38:10;;;;;;;31.02;5.82;;;;;;;11.83;75.28;101778.75;3567291;40;20388;-65
2023/01/05 08:40:37;;;;;;;31.98;6.43;;;;;;;11.82;75.44;101776.09;3567772;40;20060;-64
2023/01/05 08:43:06;;;;;;;31.92;6.00;;;;;;;11.09;75.19;101657.78;3561482;40;20056;-65
2023/01/05 08:45:32;;;;;;;38.40;6.93;;;;;;;11.81;75.13;101780.63;3567628;40;20384;-65
2023/01/05 08:47:58;;;;;;;28.77;5.80;;;;;;;11.31;75.44;101700.63;3565891;40;20064;-65
2023/01/05 08:50:24;;;;;;;33.58;6.20;;;;;;;11.78;75.66;101786.19;3565400;40;20095;-64
2023/01/05 08:52:49;;;;;;;34.05;5.97;;;;;;;11.84;75.77;101812.84;3567549;40;20377;-65
2023/01/05 08:55:15;;;;;;;24.63;5.43;;;;;;;11.84;75.86;101812.84;3565699;40;20049;-65
2023/01/05 08:57:40;;;;;;;32.20;6.55;;;;;;;11.89;75.24;101809.03;3564938;40;20064;-65
2023/01/05 09:00:07;;;;;;;30.38;5.90;;;;;;;11.90;75.23;101806.25;3564807;40;20067;-65
2023/01/05 09:02:33;;;;;;;26.63;6.25;;;;;;;11.92;75.37;101798.09;3565038;40;20064;-65
2023/01/05 09:04:58;;;;;;;30.02;6.53;;;;;;;11.93;75.49;101806.09;3564997;40;20060;-65
2023/01/05 09:07:24;;;;;;;30.83;6.07;;;;;;;11.99;74.74;101810.31;3565817;40;20053;-65
2023/01/05 09:09:50;;;;;;;37.15;7.57;;;;;;;11.26;74.96;101686.53;3564798;40;20708;-65
2023/01/05 09:12:15;;;;;;;33.47;6.15;;;;;;;11.55;75.11;101724.56;3566007;40;20055;-65
2023/01/05 09:14:41;;;;;;;31.38;5.90;;;;;;;12.09;74.48;101808.88;3565707;40;20049;-65
2023/01/05 09:17:07;;;;;;;26.95;5.60;;;;;;;12.13;74.51;101817.66;3566376;40;20044;-65
2023/01/05 09:19:32;;;;;;;32.05;6.18;;;;;;;12.16;74.27;101818.38;3557735;40;20414;-65
2023/01/05 09:21:58;;;;;;;31.83;6.38;;;;;;;12.16;74.55;101807.59;3568627;40;20068;-65
2023/01/05 09:24:24;;;;;;;32.88;5.97;;;;;;;11.74;74.58;101737.94;3568322;40;20053;-65
2023/01/05 09:26:49;;;;;;;26.30;5.50;;;;;;;12.23;74.30;101813.53;3571226;40;20395;-65
2023/01/05 09:29:15;;;;;;;36.47;6.80;;;;;;;12.22;74.10;101822.56;3565354;40;20335;-65
2023/01/05 09:31:42;;;;;;;36.72;6.78;;;;;;;11.60;73.96;101725.16;3558637;40;20045;-66
2023/01/05 09:34:08;;;;;;;28.42;5.93;;;;;;;12.20;74.65;101830.72;3566906;40;20041;-65
2023/01/05 09:36:37;;;;;;;28.27;6.13;;;;;;;11.10;74.03;101637.13;3568312;40;20055;-65
2023/01/05 09:39:05;;;;;;;37.88;6.80;;;;;;;12.25;74.26;101844.84;3568290;40;20060;-66
2023/01/05 09:41:54;;;;;;;31.75;6.65;;;;;;;12.22;74.23;101836.91;3569517;40;20604;-65
2023/01/05 09:44:32;;;;;;;33.60;7.13;;;;;;;12.21;74.23;101875.63;3570754;40;20076;-65
2023/01/05 09:47:14;;;;;;;33.08;6.22;;;;;;;12.14;74.29;101840.97;3566297;40;20127;-65
2023/01/05 09:49:41;;;;;;;30.55;5.95;;;;;;;12.23;74.49;101853.97;3568349;40;20465;-65
2023/01/05 09:52:11;;;;;;;34.35;6.20;;;;;;;12.25;74.14;101858.34;3565809;40;20067;-65
2023/01/05 09:54:38;;;;;;;30.40;6.10;;;;;;;12.25;74.09;101844.84;3565789;40;20065;-65
2023/01/05 09:57:16;;;;;;;31.08;6.22;;;;;;;12.30;74.21;101858.97;3566219;40;20104;-65
2023/01/05 09:59:51;;;;;;;29.45;6.00;;;;;;;12.30;74.16;101858.97;3566533;40;20356;-65
2023/01/05 10:02:31;;;;;;;31.67;6.95;;;;;;;12.25;74.24;101855.63;3567828;40;20104;-69
2023/01/05 10:05:00;;;;;;;29.80;6.75;;;;;;;12.26;74.11;101864.59;3570738;40;20333;-65
2023/01/05 10:07:42;;;;;;;31.65;6.53;;;;;;;12.26;74.49;101868.16;3567626;40;20328;-65
2023/01/05 10:10:25;;;;;;;39.40;6.10;;;;;;;12.26;74.15;101868.16;3556728;40;20086;-64
2023/01/05 10:13:04;;;;;;;36.17;6.63;;;;;;;12.28;74.63;101868.97;3568430;40;20264;-65
2023/01/05 10:15:45;;;;;;;28.20;5.35;;;;;;;12.19;74.47;101849.69;3566740;40;20095;-65
2023/01/05 10:18:23;;;;;;;26.65;5.90;;;;;;;12.32;74.44;101869.66;3568034;40;20060;-65
2023/01/05 10:21:23;;;;;;;28.88;5.35;;;;;;;12.35;74.55;101863.25;3568916;40;20104;-65
2023/01/05 10:24:07;;;;;;;28.35;5.70;;;;;;;12.41;74.51;101877.28;3546574;40;20068;-65
2023/01/05 10:26:43;;;;;;;;;;;;;;;12.40;73.76;101871.94;3566435;40;20045;-66
2023/01/05 10:29:21;;;;;;;30.38;6.13;;;;;;;12.41;73.92;101876.41;3569980;40;19936;-65
2023/01/05 10:32:11;;;;;;;32.15;6.30;;;;;;;12.43;73.75;101879.88;3567839;40;20187;-65
2023/01/05 10:35:18;;;;;;;28.13;5.47;;;;;;;12.44;74.17;101887.03;3567900;40;20055;-65
2023/01/05 10:37:53;;;;;;;30.48;6.13;;;;;;;12.41;73.94;101879.97;3564077;40;20072;-65
2023/01/05 10:40:27;;;;;;;34.97;6.78;;;;;;;12.38;73.95;101881.97;3567890;40;20097;-65
2023/01/05 10:43:20;;;;;;;32.85;6.10;;;;;;;12.35;74.16;101882.97;3568921;40;20311;-65
2023/01/05 10:45:45;;;;;;;29.60;6.63;;;;;;;12.34;74.13;101883.03;3568687;40;20063;-65
2023/01/05 10:48:24;;;;;;;31.20;6.43;;;;;;;12.35;74.44;101871.34;3569081;40;20069;-65
2023/01/05 10:50:55;;;;;;;29.80;6.88;;;;;;;12.36;73.80;101879.31;3567535;40;20052;-65
2023/01/05 10:53:25;;;;;;;34.78;6.53;;;;;;;12.32;73.96;101880.44;3568742;40;20200;-65
2023/01/05 10:56:03;;;;;;;26.33;5.93;;;;;;;12.33;73.83;101874.09;3567036;40;20048;-65
2023/01/05 10:58:33;;;;;;;33.63;6.95;;;;;;;12.37;73.54;101888.28;3565673;40;20056;-65
2023/01/05 11:01:04;;;;;;;31.48;7.13;;;;;;;12.35;73.54;101888.38;3564556;40;20059;-65
2023/01/05 11:03:46;;;;;;;29.25;5.90;;;;;;;12.34;73.48;101893.84;3568937;40;20052;-65
2023/01/05 11:06:25;;;;;;;29.30;5.75;;;;;;;12.32;74.17;101897.50;3565419;40;20045;-65
2023/01/05 11:08:53;;;;;;;31.05;6.82;;;;;;;12.35;74.10;101895.59;3567612;40;20297;-65
2023/01/05 11:11:25;;;;;;;31.70;5.88;;;;;;;12.39;74.19;101899.88;3566607;40;20065;-65
2023/01/05 11:13:57;;;;;;;34.22;5.72;;;;;;;12.35;74.04;101882.97;3566545;40;20128;-65
2023/01/05 11:16:32;;;;;;;33.33;6.63;;;;;;;12.46;74.08;101891.41;3561680;40;20053;-65
2023/01/05 11:19:05;;;;;;;25.83;5.47;;;;;;;12.47;73.44;101901.22;3568734;40;20089;-65
2023/01/05 11:21:38;;;;;;;33.92;6.97;;;;;;;12.51;73.82;101893.84;3567019;40;20049;-65
2023/01/05 11:24:31;;;;;;;34.60;6.47;;;;;;;12.51;73.35;101896.53;3569175;40;20045;-65
2023/01/05 11:27:23;;;;;;;34.85;6.75;;;;;;;12.52;73.42;101884.78;3566915;40;20135;-65
2023/01/05 11:30:13;;;;;;;33.28;6.72;;;;;;;12.54;73.17;101889.16;3569458;40;20053;-65
2023/01/05 11:32:41;;;;;;;35.40;6.63;;;;;;;12.57;73.12;101881.84;3567900;40;20040;-65
2023/01/05 11:35:36;;;;;;;32.60;6.32;;;;;;;12.56;73.15;101878.28;3568782;40;20068;-65
2023/01/05 11:38:02;;;;;;;32.90;5.72;;;;;;;12.54;72.56;101881.06;3569179;40;20052;-64
2023/01/05 11:40:34;;;;;;;25.50;6.10;;;;;;;12.58;72.86;101872.81;3567204;40;20478;-65
2023/01/05 11:43:10;;;;;;;29.17;6.43;;;;;;;12.48;72.36;101856.25;3567654;40;20060;-65
2023/01/05 11:45:50;;;;;;;30.95;6.95;;;;;;;12.59;72.88;101872.75;3568541;40;20052;-65
2023/01/05 11:48:24;;;;;;;32.30;6.00;;;;;;;12.50;72.59;101860.59;3568411;40;20052;-66
2023/01/05 11:50:55;;;;;;;28.92;6.10;;;;;;;12.58;71.99;101870.09;3566117;40;20085;-66
2023/01/05 11:53:33;;;;;;;30.85;5.88;;;;;;;12.59;72.08;101870.03;3567353;40;20049;-66
2023/01/05 11:56:22;;;;;;;27.80;5.68;;;;;;;12.57;72.30;101866.53;3564306;40;20057;-66
2023/01/05 11:58:51;;;;;;;32.28;6.20;;;;;;;11.82;72.26;101744.66;3564585;40;20065;-66
2023/01/05 12:01:38;;;;;;;29.10;6.80;;;;;;;12.55;72.23;101863.91;3569022;40;20124;-66
2023/01/05 12:04:38;;;;;;;35.53;6.60;;;;;;;12.46;72.54;101847.34;3565549;40;20125;-66
2023/01/05 12:07:42;;;;;;;26.75;5.57;;;;;;;12.53;71.53;101864.97;3565401;40;20057;-65